Terminal Aerodrome Forecast
Issued by NWS Shreveport, LA

Home | Current Version | Previous Version | Text Only | Print | Product List | Glossary On
Versions: 1 2 3 4 5 6 7 8 9 10 11 12 13 14 15 16 17 18 19 20
000
FTUS44 KSHV 301501 AAB
TAFSHV
TAF AMD
KSHV 301501Z 3015/3112 22005KT 3SM -TSRA BR SCT015 BKN035CB
      TEMPO 3015/3018 VRB20G40KT 1SM TSRA BR BKN009CB
     FM302100 31010KT P6SM BKN050
     FM310100 32006KT P6SM BKN250=

USA.gov is the U.S. government's official web portal to all federal, state and local government web resources and services.